sensor_id;sensor_type;location;lat;lon;timestamp;P1;durP1;ratioP1;P2;durP2;ratioP2
13969;SDS011;7057;49.984;8.404;2022-11-23T00:00:36;7.70;;;3.20;;
13969;SDS011;7057;49.984;8.404;2022-11-23T00:03:04;4.90;;;2.78;;
13969;SDS011;7057;49.984;8.404;2022-11-23T00:05:31;6.60;;;3.00;;
13969;SDS011;7057;49.984;8.404;2022-11-23T00:08:00;7.15;;;3.10;;
13969;SDS011;7057;49.984;8.404;2022-11-23T00:10:27;5.75;;;2.83;;
13969;SDS011;7057;49.984;8.404;2022-11-23T00:12:54;7.45;;;2.72;;
13969;SDS011;7057;49.984;8.404;2022-11-23T00:15:23;7.40;;;2.85;;
13969;SDS011;7057;49.984;8.404;2022-11-23T00:17:50;6.90;;;3.10;;
13969;SDS011;7057;49.984;8.404;2022-11-23T00:20:17;5.80;;;2.90;;
13969;SDS011;7057;49.984;8.404;2022-11-23T00:22:44;4.60;;;2.80;;
13969;SDS011;7057;49.984;8.404;2022-11-23T00:25:12;7.40;;;2.90;;
13969;SDS011;7057;49.984;8.404;2022-11-23T00:27:39;4.13;;;2.72;;
13969;SDS011;7057;49.984;8.404;2022-11-23T00:30:06;5.57;;;2.60;;
13969;SDS011;7057;49.984;8.404;2022-11-23T00:32:36;4.70;;;2.60;;
13969;SDS011;7057;49.984;8.404;2022-11-23T00:35:03;5.18;;;2.70;;
13969;SDS011;7057;49.984;8.404;2022-11-23T00:37:31;4.88;;;3.20;;
13969;SDS011;7057;49.984;8.404;2022-11-23T00:39:58;6.47;;;2.80;;
13969;SDS011;7057;49.984;8.404;2022-11-23T00:42:25;6.93;;;2.70;;
13969;SDS011;7057;49.984;8.404;2022-11-23T00:44:52;6.97;;;2.78;;
13969;SDS011;7057;49.984;8.404;2022-11-23T00:47:19;8.15;;;3.17;;
13969;SDS011;7057;49.984;8.404;2022-11-23T00:49:48;5.40;;;2.90;;
13969;SDS011;7057;49.984;8.404;2022-11-23T00:52:15;5.22;;;2.60;;
13969;SDS011;7057;49.984;8.404;2022-11-23T00:54:42;5.40;;;2.75;;
13969;SDS011;7057;49.984;8.404;2022-11-23T00:57:09;5.10;;;2.90;;
13969;SDS011;7057;49.984;8.404;2022-11-23T00:59:36;5.00;;;2.50;;
13969;SDS011;7057;49.984;8.404;2022-11-23T01:02:03;6.87;;;2.80;;
13969;SDS011;7057;49.984;8.404;2022-11-23T01:04:31;5.47;;;2.67;;
13969;SDS011;7057;49.984;8.404;2022-11-23T01:06:59;4.25;;;2.40;;
13969;SDS011;7057;49.984;8.404;2022-11-23T01:09:26;7.23;;;2.40;;
13969;SDS011;7057;49.984;8.404;2022-11-23T01:11:54;4.80;;;2.70;;
13969;SDS011;7057;49.984;8.404;2022-11-23T01:14:21;5.85;;;2.55;;
13969;SDS011;7057;49.984;8.404;2022-11-23T01:16:49;6.03;;;2.42;;
13969;SDS011;7057;49.984;8.404;2022-11-23T01:19:17;5.78;;;3.10;;
13969;SDS011;7057;49.984;8.404;2022-11-23T01:21:46;4.93;;;2.92;;
13969;SDS011;7057;49.984;8.404;2022-11-23T01:24:15;4.10;;;2.40;;
13969;SDS011;7057;49.984;8.404;2022-11-23T01:26:44;4.93;;;2.78;;
13969;SDS011;7057;49.984;8.404;2022-11-23T01:29:15;6.70;;;2.60;;
13969;SDS011;7057;49.984;8.404;2022-11-23T01:31:43;6.53;;;2.75;;
13969;SDS011;7057;49.984;8.404;2022-11-23T01:34:10;6.22;;;3.00;;
13969;SDS011;7057;49.984;8.404;2022-11-23T01:36:38;6.65;;;2.92;;
13969;SDS011;7057;49.984;8.404;2022-11-23T01:39:06;6.75;;;3.15;;
13969;SDS011;7057;49.984;8.404;2022-11-23T01:41:36;6.07;;;2.75;;
13969;SDS011;7057;49.984;8.404;2022-11-23T01:44:20;6.00;;;2.78;;
13969;SDS011;7057;49.984;8.404;2022-11-23T01:46:52;5.37;;;2.80;;
13969;SDS011;7057;49.984;8.404;2022-11-23T01:49:20;6.20;;;3.03;;
13969;SDS011;7057;49.984;8.404;2022-11-23T01:51:49;6.27;;;2.90;;
13969;SDS011;7057;49.984;8.404;2022-11-23T01:54:20;5.25;;;3.00;;
13969;SDS011;7057;49.984;8.404;2022-11-23T01:56:52;6.90;;;2.85;;
13969;SDS011;7057;49.984;8.404;2022-11-23T01:59:22;5.75;;;2.95;;
13969;SDS011;7057;49.984;8.404;2022-11-23T02:01:52;6.68;;;2.65;;
13969;SDS011;7057;49.984;8.404;2022-11-23T02:04:21;5.88;;;2.90;;
13969;SDS011;7057;49.984;8.404;2022-11-23T02:06:50;8.90;;;3.03;;
13969;SDS011;7057;49.984;8.404;2022-11-23T02:09:18;5.43;;;2.85;;
13969;SDS011;7057;49.984;8.404;2022-11-23T02:11:47;7.28;;;2.83;;
13969;SDS011;7057;49.984;8.404;2022-11-23T02:14:16;5.28;;;2.50;;
13969;SDS011;7057;49.984;8.404;2022-11-23T02:16:44;6.88;;;2.72;;
13969;SDS011;7057;49.984;8.404;2022-11-23T02:19:13;5.63;;;2.78;;
13969;SDS011;7057;49.984;8.404;2022-11-23T02:21:46;5.57;;;2.42;;
13969;SDS011;7057;49.984;8.404;2022-11-23T02:24:17;7.28;;;2.67;;
13969;SDS011;7057;49.984;8.404;2022-11-23T02:26:50;4.47;;;2.50;;
13969;SDS011;7057;49.984;8.404;2022-11-23T02:29:19;5.50;;;2.65;;
13969;SDS011;7057;49.984;8.404;2022-11-23T02:31:49;4.70;;;2.80;;
13969;SDS011;7057;49.984;8.404;2022-11-23T02:34:17;6.65;;;2.53;;
13969;SDS011;7057;49.984;8.404;2022-11-23T02:36:44;5.28;;;2.40;;
13969;SDS011;7057;49.984;8.404;2022-11-23T02:39:15;4.20;;;2.40;;
13969;SDS011;7057;49.984;8.404;2022-11-23T02:41:47;5.35;;;2.47;;
13969;SDS011;7057;49.984;8.404;2022-11-23T02:44:25;5.40;;;2.88;;
13969;SDS011;7057;49.984;8.404;2022-11-23T02:46:59;5.88;;;2.53;;
13969;SDS011;7057;49.984;8.404;2022-11-23T02:49:27;5.80;;;2.47;;
13969;SDS011;7057;49.984;8.404;2022-11-23T02:51:54;4.70;;;2.47;;
13969;SDS011;7057;49.984;8.404;2022-11-23T02:54:21;5.80;;;2.60;;
13969;SDS011;7057;49.984;8.404;2022-11-23T02:56:48;5.70;;;2.63;;
13969;SDS011;7057;49.984;8.404;2022-11-23T02:59:15;5.13;;;3.00;;
13969;SDS011;7057;49.984;8.404;2022-11-23T03:01:44;3.88;;;2.40;;
13969;SDS011;7057;49.984;8.404;2022-11-23T03:04:11;5.90;;;2.47;;
13969;SDS011;7057;49.984;8.404;2022-11-23T03:06:39;5.03;;;2.47;;
13969;SDS011;7057;49.984;8.404;2022-11-23T03:09:07;5.50;;;2.53;;
13969;SDS011;7057;49.984;8.404;2022-11-23T03:11:35;6.93;;;2.70;;
13969;SDS011;7057;49.984;8.404;2022-11-23T03:14:02;4.05;;;2.70;;
13969;SDS011;7057;49.984;8.404;2022-11-23T03:16:29;6.35;;;2.63;;
13969;SDS011;7057;49.984;8.404;2022-11-23T03:18:59;5.15;;;2.67;;
13969;SDS011;7057;49.984;8.404;2022-11-23T03:21:26;4.85;;;2.50;;
13969;SDS011;7057;49.984;8.404;2022-11-23T03:23:53;5.68;;;2.50;;
13969;SDS011;7057;49.984;8.404;2022-11-23T03:26:21;6.50;;;2.70;;
13969;SDS011;7057;49.984;8.404;2022-11-23T03:28:48;5.68;;;2.60;;
13969;SDS011;7057;49.984;8.404;2022-11-23T03:31:15;5.85;;;2.70;;
13969;SDS011;7057;49.984;8.404;2022-11-23T03:33:42;6.72;;;2.60;;
13969;SDS011;7057;49.984;8.404;2022-11-23T03:36:11;5.38;;;2.35;;
13969;SDS011;7057;49.984;8.404;2022-11-23T03:38:38;5.32;;;2.60;;
13969;SDS011;7057;49.984;8.404;2022-11-23T03:41:05;6.93;;;2.88;;
13969;SDS011;7057;49.984;8.404;2022-11-23T03:43:32;7.25;;;2.70;;
13969;SDS011;7057;49.984;8.404;2022-11-23T03:45:59;4.70;;;2.47;;
13969;SDS011;7057;49.984;8.404;2022-11-23T03:48:27;5.88;;;2.80;;
13969;SDS011;7057;49.984;8.404;2022-11-23T03:50:54;5.60;;;2.10;;
13969;SDS011;7057;49.984;8.404;2022-11-23T03:53:22;3.87;;;2.20;;
13969;SDS011;7057;49.984;8.404;2022-11-23T03:55:49;5.18;;;2.33;;
13969;SDS011;7057;49.984;8.404;2022-11-23T03:58:19;6.28;;;2.80;;
13969;SDS011;7057;49.984;8.404;2022-11-23T04:00:46;6.38;;;2.92;;
13969;SDS011;7057;49.984;8.404;2022-11-23T04:03:13;5.80;;;2.38;;
13969;SDS011;7057;49.984;8.404;2022-11-23T04:05:41;5.18;;;2.20;;
13969;SDS011;7057;49.984;8.404;2022-11-23T04:08:08;4.85;;;2.50;;
13969;SDS011;7057;49.984;8.404;2022-11-23T04:10:36;6.05;;;2.40;;
13969;SDS011;7057;49.984;8.404;2022-11-23T04:13:04;4.80;;;2.20;;
13969;SDS011;7057;49.984;8.404;2022-11-23T04:15:31;6.20;;;2.47;;
13969;SDS011;7057;49.984;8.404;2022-11-23T04:17:58;6.30;;;2.38;;
13969;SDS011;7057;49.984;8.404;2022-11-23T04:20:25;5.20;;;2.72;;
13969;SDS011;7057;49.984;8.404;2022-11-23T04:22:52;4.07;;;2.13;;
13969;SDS011;7057;49.984;8.404;2022-11-23T04:25:20;4.80;;;2.33;;
13969;SDS011;7057;49.984;8.404;2022-11-23T04:27:48;7.03;;;2.60;;
13969;SDS011;7057;49.984;8.404;2022-11-23T04:30:16;5.03;;;2.45;;
13969;SDS011;7057;49.984;8.404;2022-11-23T04:32:43;6.63;;;2.63;;
13969;SDS011;7057;49.984;8.404;2022-11-23T04:35:11;4.35;;;2.20;;
13969;SDS011;7057;49.984;8.404;2022-11-23T04:37:38;6.35;;;2.30;;
13969;SDS011;7057;49.984;8.404;2022-11-23T04:40:06;5.60;;;2.58;;
13969;SDS011;7057;49.984;8.404;2022-11-23T04:42:34;5.68;;;2.85;;
13969;SDS011;7057;49.984;8.404;2022-11-23T04:45:02;4.30;;;2.20;;
13969;SDS011;7057;49.984;8.404;2022-11-23T04:47:30;4.70;;;2.20;;
13969;SDS011;7057;49.984;8.404;2022-11-23T04:49:58;3.95;;;2.30;;
13969;SDS011;7057;49.984;8.404;2022-11-23T04:52:25;4.82;;;2.28;;
13969;SDS011;7057;49.984;8.404;2022-11-23T04:54:52;5.72;;;2.50;;
13969;SDS011;7057;49.984;8.404;2022-11-23T04:57:19;5.80;;;2.20;;
13969;SDS011;7057;49.984;8.404;2022-11-23T04:59:46;4.60;;;2.38;;
13969;SDS011;7057;49.984;8.404;2022-11-23T05:02:15;5.95;;;2.60;;
13969;SDS011;7057;49.984;8.404;2022-11-23T05:04:42;5.57;;;2.58;;
13969;SDS011;7057;49.984;8.404;2022-11-23T05:07:09;6.30;;;2.60;;
13969;SDS011;7057;49.984;8.404;2022-11-23T05:09:36;6.65;;;2.53;;
13969;SDS011;7057;49.984;8.404;2022-11-23T05:12:03;4.57;;;2.65;;
13969;SDS011;7057;49.984;8.404;2022-11-23T05:14:31;6.00;;;2.40;;
13969;SDS011;7057;49.984;8.404;2022-11-23T05:16:58;5.68;;;2.65;;
13969;SDS011;7057;49.984;8.404;2022-11-23T05:19:27;4.72;;;2.50;;
13969;SDS011;7057;49.984;8.404;2022-11-23T05:21:54;4.73;;;2.40;;
13969;SDS011;7057;49.984;8.404;2022-11-23T05:24:21;4.10;;;2.58;;
13969;SDS011;7057;49.984;8.404;2022-11-23T05:26:48;7.10;;;2.55;;
13969;SDS011;7057;49.984;8.404;2022-11-23T05:29:15;7.38;;;2.63;;
13969;SDS011;7057;49.984;8.404;2022-11-23T05:31:43;5.00;;;2.42;;
13969;SDS011;7057;49.984;8.404;2022-11-23T05:34:10;5.50;;;2.80;;
13969;SDS011;7057;49.984;8.404;2022-11-23T05:36:38;4.85;;;2.50;;
13969;SDS011;7057;49.984;8.404;2022-11-23T05:39:06;4.97;;;2.60;;
13969;SDS011;7057;49.984;8.404;2022-11-23T05:41:33;5.63;;;2.58;;
13969;SDS011;7057;49.984;8.404;2022-11-23T05:44:00;5.25;;;2.45;;
13969;SDS011;7057;49.984;8.404;2022-11-23T05:46:27;4.45;;;2.45;;
13969;SDS011;7057;49.984;8.404;2022-11-23T05:48:55;5.22;;;2.40;;
13969;SDS011;7057;49.984;8.404;2022-11-23T05:51:22;4.78;;;2.10;;
13969;SDS011;7057;49.984;8.404;2022-11-23T05:53:50;5.10;;;2.50;;
13969;SDS011;7057;49.984;8.404;2022-11-23T05:56:17;5.80;;;2.55;;
13969;SDS011;7057;49.984;8.404;2022-11-23T05:58:45;5.35;;;2.55;;
13969;SDS011;7057;49.984;8.404;2022-11-23T06:01:12;6.38;;;2.60;;
13969;SDS011;7057;49.984;8.404;2022-11-23T06:03:39;5.45;;;2.42;;
13969;SDS011;7057;49.984;8.404;2022-11-23T06:06:06;5.38;;;2.70;;
13969;SDS011;7057;49.984;8.404;2022-11-23T06:08:33;5.30;;;2.45;;
13969;SDS011;7057;49.984;8.404;2022-11-23T06:11:02;5.50;;;2.75;;
13969;SDS011;7057;49.984;8.404;2022-11-23T06:13:29;6.03;;;2.60;;
13969;SDS011;7057;49.984;8.404;2022-11-23T06:15:56;6.72;;;2.72;;
13969;SDS011;7057;49.984;8.404;2022-11-23T06:18:23;5.38;;;2.78;;
13969;SDS011;7057;49.984;8.404;2022-11-23T06:20:51;7.22;;;2.63;;
13969;SDS011;7057;49.984;8.404;2022-11-23T06:23:18;4.20;;;2.15;;
13969;SDS011;7057;49.984;8.404;2022-11-23T06:25:45;5.10;;;2.40;;
13969;SDS011;7057;49.984;8.404;2022-11-23T06:28:13;6.28;;;2.67;;
13969;SDS011;7057;49.984;8.404;2022-11-23T06:30:40;6.50;;;2.38;;
13969;SDS011;7057;49.984;8.404;2022-11-23T06:33:08;4.97;;;2.37;;
13969;SDS011;7057;49.984;8.404;2022-11-23T06:35:35;6.27;;;2.37;;
13969;SDS011;7057;49.984;8.404;2022-11-23T06:38:02;6.20;;;2.50;;
13969;SDS011;7057;49.984;8.404;2022-11-23T06:40:30;6.88;;;2.40;;
13969;SDS011;7057;49.984;8.404;2022-11-23T06:42:57;6.30;;;2.40;;
13969;SDS011;7057;49.984;8.404;2022-11-23T06:45:26;4.93;;;2.60;;
13969;SDS011;7057;49.984;8.404;2022-11-23T06:47:54;5.25;;;2.35;;
13969;SDS011;7057;49.984;8.404;2022-11-23T06:50:21;4.73;;;2.70;;
13969;SDS011;7057;49.984;8.404;2022-11-23T06:52:52;5.90;;;2.88;;
13969;SDS011;7057;49.984;8.404;2022-11-23T06:55:20;6.35;;;2.35;;
13969;SDS011;7057;49.984;8.404;2022-11-23T06:57:48;5.72;;;2.40;;
13969;SDS011;7057;49.984;8.404;2022-11-23T07:00:15;4.72;;;2.30;;
13969;SDS011;7057;49.984;8.404;2022-11-23T07:02:48;5.25;;;2.55;;
13969;SDS011;7057;49.984;8.404;2022-11-23T07:05:17;5.65;;;2.50;;
13969;SDS011;7057;49.984;8.404;2022-11-23T07:07:44;5.57;;;2.58;;
13969;SDS011;7057;49.984;8.404;2022-11-23T07:10:12;5.45;;;2.72;;
13969;SDS011;7057;49.984;8.404;2022-11-23T07:12:39;6.97;;;2.92;;
13969;SDS011;7057;49.984;8.404;2022-11-23T07:15:07;5.95;;;2.63;;
13969;SDS011;7057;49.984;8.404;2022-11-23T07:17:37;6.07;;;2.80;;
13969;SDS011;7057;49.984;8.404;2022-11-23T07:20:07;7.47;;;2.88;;
13969;SDS011;7057;49.984;8.404;2022-11-23T07:22:35;5.57;;;2.60;;
13969;SDS011;7057;49.984;8.404;2022-11-23T07:25:02;6.28;;;2.60;;
13969;SDS011;7057;49.984;8.404;2022-11-23T07:27:30;3.88;;;2.47;;
13969;SDS011;7057;49.984;8.404;2022-11-23T07:29:58;7.13;;;2.42;;
13969;SDS011;7057;49.984;8.404;2022-11-23T07:32:25;7.22;;;2.97;;
13969;SDS011;7057;49.984;8.404;2022-11-23T07:34:52;6.35;;;2.78;;
13969;SDS011;7057;49.984;8.404;2022-11-23T07:37:20;6.50;;;2.55;;
13969;SDS011;7057;49.984;8.404;2022-11-23T07:39:48;6.85;;;2.70;;
13969;SDS011;7057;49.984;8.404;2022-11-23T07:42:17;6.25;;;2.58;;
13969;SDS011;7057;49.984;8.404;2022-11-23T07:44:45;4.80;;;2.47;;
13969;SDS011;7057;49.984;8.404;2022-11-23T07:47:12;5.97;;;2.63;;
13969;SDS011;7057;49.984;8.404;2022-11-23T07:49:39;4.82;;;2.63;;
13969;SDS011;7057;49.984;8.404;2022-11-23T07:52:06;6.13;;;2.67;;
13969;SDS011;7057;49.984;8.404;2022-11-23T07:54:35;6.03;;;2.57;;
13969;SDS011;7057;49.984;8.404;2022-11-23T07:57:02;8.20;;;2.63;;
13969;SDS011;7057;49.984;8.404;2022-11-23T07:59:29;6.30;;;2.75;;
13969;SDS011;7057;49.984;8.404;2022-11-23T08:01:56;4.38;;;2.70;;
13969;SDS011;7057;49.984;8.404;2022-11-23T08:04:23;5.28;;;2.60;;
13969;SDS011;7057;49.984;8.404;2022-11-23T08:06:51;5.20;;;2.65;;
13969;SDS011;7057;49.984;8.404;2022-11-23T08:09:19;7.15;;;2.65;;
13969;SDS011;7057;49.984;8.404;2022-11-23T08:11:48;7.43;;;2.65;;
13969;SDS011;7057;49.984;8.404;2022-11-23T08:14:15;6.65;;;2.60;;
13969;SDS011;7057;49.984;8.404;2022-11-23T08:16:42;6.57;;;2.83;;
13969;SDS011;7057;49.984;8.404;2022-11-23T08:19:09;4.75;;;2.58;;
13969;SDS011;7057;49.984;8.404;2022-11-23T08:21:36;9.68;;;2.90;;
13969;SDS011;7057;49.984;8.404;2022-11-23T08:24:04;6.00;;;2.80;;
13969;SDS011;7057;49.984;8.404;2022-11-23T08:26:31;6.28;;;2.85;;
13969;SDS011;7057;49.984;8.404;2022-11-23T08:29:00;6.45;;;2.70;;
13969;SDS011;7057;49.984;8.404;2022-11-23T08:31:27;5.77;;;2.60;;
13969;SDS011;7057;49.984;8.404;2022-11-23T08:33:54;5.60;;;2.55;;
13969;SDS011;7057;49.984;8.404;2022-11-23T08:36:22;6.43;;;2.55;;
13969;SDS011;7057;49.984;8.404;2022-11-23T08:38:49;6.38;;;2.58;;
13969;SDS011;7057;49.984;8.404;2022-11-23T08:41:17;5.32;;;2.70;;
13969;SDS011;7057;49.984;8.404;2022-11-23T08:43:45;7.00;;;2.90;;
13969;SDS011;7057;49.984;8.404;2022-11-23T08:46:14;7.13;;;2.80;;
13969;SDS011;7057;49.984;8.404;2022-11-23T08:48:41;7.68;;;3.08;;
13969;SDS011;7057;49.984;8.404;2022-11-23T08:51:08;5.18;;;2.70;;
13969;SDS011;7057;49.984;8.404;2022-11-23T08:53:36;6.35;;;2.65;;
13969;SDS011;7057;49.984;8.404;2022-11-23T08:56:04;4.47;;;2.70;;
13969;SDS011;7057;49.984;8.404;2022-11-23T08:58:32;6.97;;;2.70;;
13969;SDS011;7057;49.984;8.404;2022-11-23T09:01:01;5.38;;;2.42;;
13969;SDS011;7057;49.984;8.404;2022-11-23T09:03:34;7.25;;;2.80;;
13969;SDS011;7057;49.984;8.404;2022-11-23T09:06:01;4.22;;;2.78;;
13969;SDS011;7057;49.984;8.404;2022-11-23T09:08:28;5.90;;;2.45;;
13969;SDS011;7057;49.984;8.404;2022-11-23T09:10:58;3.63;;;2.50;;
13969;SDS011;7057;49.984;8.404;2022-11-23T09:13:25;7.17;;;2.63;;
13969;SDS011;7057;49.984;8.404;2022-11-23T09:15:55;6.73;;;2.50;;
13969;SDS011;7057;49.984;8.404;2022-11-23T09:18:23;5.75;;;2.90;;
13969;SDS011;7057;49.984;8.404;2022-11-23T09:20:52;4.95;;;2.63;;
13969;SDS011;7057;49.984;8.404;2022-11-23T09:23:19;6.55;;;2.90;;
13969;SDS011;7057;49.984;8.404;2022-11-23T09:25:46;6.15;;;2.60;;
13969;SDS011;7057;49.984;8.404;2022-11-23T09:28:14;8.15;;;3.40;;
13969;SDS011;7057;49.984;8.404;2022-11-23T09:30:43;6.45;;;2.53;;
13969;SDS011;7057;49.984;8.404;2022-11-23T09:33:11;7.03;;;2.95;;
13969;SDS011;7057;49.984;8.404;2022-11-23T09:35:38;5.18;;;2.70;;
13969;SDS011;7057;49.984;8.404;2022-11-23T09:38:07;6.68;;;2.35;;
13969;SDS011;7057;49.984;8.404;2022-11-23T09:40:35;4.50;;;2.53;;
13969;SDS011;7057;49.984;8.404;2022-11-23T09:43:07;5.15;;;2.42;;
13969;SDS011;7057;49.984;8.404;2022-11-23T09:45:48;6.63;;;2.83;;
13969;SDS011;7057;49.984;8.404;2022-11-23T09:48:22;7.40;;;2.80;;
13969;SDS011;7057;49.984;8.404;2022-11-23T09:50:58;8.67;;;2.87;;
13969;SDS011;7057;49.984;8.404;2022-11-23T09:53:32;6.28;;;2.75;;
13969;SDS011;7057;49.984;8.404;2022-11-23T09:56:02;5.82;;;2.67;;
13969;SDS011;7057;49.984;8.404;2022-11-23T09:58:30;4.30;;;2.60;;
13969;SDS011;7057;49.984;8.404;2022-11-23T10:01:06;7.03;;;2.42;;
13969;SDS011;7057;49.984;8.404;2022-11-23T10:03:39;7.65;;;2.92;;
13969;SDS011;7057;49.984;8.404;2022-11-23T10:06:11;6.55;;;2.50;;
13969;SDS011;7057;49.984;8.404;2022-11-23T10:08:45;7.97;;;2.92;;
13969;SDS011;7057;49.984;8.404;2022-11-23T10:11:29;5.30;;;2.47;;
13969;SDS011;7057;49.984;8.404;2022-11-23T10:14:20;8.10;;;2.80;;
13969;SDS011;7057;49.984;8.404;2022-11-23T10:17:01;4.07;;;2.53;;
13969;SDS011;7057;49.984;8.404;2022-11-23T10:19:38;6.45;;;2.50;;
13969;SDS011;7057;49.984;8.404;2022-11-23T10:22:16;6.50;;;2.25;;
13969;SDS011;7057;49.984;8.404;2022-11-23T10:24:50;6.13;;;2.45;;
13969;SDS011;7057;49.984;8.404;2022-11-23T10:27:19;5.25;;;2.30;;
13969;SDS011;7057;49.984;8.404;2022-11-23T10:29:47;6.35;;;2.40;;
13969;SDS011;7057;49.984;8.404;2022-11-23T10:32:20;6.43;;;2.50;;
13969;SDS011;7057;49.984;8.404;2022-11-23T10:34:57;4.18;;;2.08;;
13969;SDS011;7057;49.984;8.404;2022-11-23T10:37:28;7.18;;;2.45;;
13969;SDS011;7057;49.984;8.404;2022-11-23T10:39:56;5.80;;;2.40;;
13969;SDS011;7057;49.984;8.404;2022-11-23T10:42:25;5.33;;;2.40;;
13969;SDS011;7057;49.984;8.404;2022-11-23T10:44:57;6.63;;;2.50;;
13969;SDS011;7057;49.984;8.404;2022-11-23T10:47:32;5.95;;;2.58;;
13969;SDS011;7057;49.984;8.404;2022-11-23T10:50:18;5.38;;;2.25;;
13969;SDS011;7057;49.984;8.404;2022-11-23T10:52:49;4.97;;;2.00;;
13969;SDS011;7057;49.984;8.404;2022-11-23T10:55:21;7.13;;;2.15;;
13969;SDS011;7057;49.984;8.404;2022-11-23T10:57:53;4.75;;;1.95;;
13969;SDS011;7057;49.984;8.404;2022-11-23T11:00:21;6.47;;;2.05;;
13969;SDS011;7057;49.984;8.404;2022-11-23T11:02:50;4.90;;;2.35;;
13969;SDS011;7057;49.984;8.404;2022-11-23T11:05:23;7.10;;;2.30;;
13969;SDS011;7057;49.984;8.404;2022-11-23T11:07:52;4.13;;;1.90;;
13969;SDS011;7057;49.984;8.404;2022-11-23T11:10:32;3.88;;;1.98;;
13969;SDS011;7057;49.984;8.404;2022-11-23T11:13:01;4.13;;;2.10;;
13969;SDS011;7057;49.984;8.404;2022-11-23T11:15:29;7.20;;;2.03;;
13969;SDS011;7057;49.984;8.404;2022-11-23T11:17:57;6.38;;;1.88;;
13969;SDS011;7057;49.984;8.404;2022-11-23T11:20:31;4.15;;;1.95;;
13969;SDS011;7057;49.984;8.404;2022-11-23T11:23:00;5.17;;;1.90;;
13969;SDS011;7057;49.984;8.404;2022-11-23T11:25:32;4.83;;;2.00;;
13969;SDS011;7057;49.984;8.404;2022-11-23T11:28:02;4.45;;;1.90;;
13969;SDS011;7057;49.984;8.404;2022-11-23T11:30:34;3.58;;;1.80;;
13969;SDS011;7057;49.984;8.404;2022-11-23T11:33:10;5.57;;;2.00;;
13969;SDS011;7057;49.984;8.404;2022-11-23T11:35:42;6.68;;;1.95;;
13969;SDS011;7057;49.984;8.404;2022-11-23T11:38:14;4.78;;;1.92;;
13969;SDS011;7057;49.984;8.404;2022-11-23T11:40:48;5.72;;;1.90;;
13969;SDS011;7057;49.984;8.404;2022-11-23T11:43:17;3.78;;;2.10;;
13969;SDS011;7057;49.984;8.404;2022-11-23T11:45:49;4.30;;;2.25;;
13969;SDS011;7057;49.984;8.404;2022-11-23T11:48:19;4.95;;;1.83;;
13969;SDS011;7057;49.984;8.404;2022-11-23T11:50:50;4.78;;;2.05;;
13969;SDS011;7057;49.984;8.404;2022-11-23T11:53:21;3.80;;;1.67;;
13969;SDS011;7057;49.984;8.404;2022-11-23T11:55:53;3.33;;;1.58;;
13969;SDS011;7057;49.984;8.404;2022-11-23T11:58:24;4.88;;;1.60;;
13969;SDS011;7057;49.984;8.404;2022-11-23T12:00:52;3.53;;;1.83;;
13969;SDS011;7057;49.984;8.404;2022-11-23T12:03:33;4.20;;;1.60;;
13969;SDS011;7057;49.984;8.404;2022-11-23T12:06:07;4.28;;;1.60;;
13969;SDS011;7057;49.984;8.404;2022-11-23T12:08:39;4.25;;;1.50;;
13969;SDS011;7057;49.984;8.404;2022-11-23T12:11:13;2.50;;;1.35;;
13969;SDS011;7057;49.984;8.404;2022-11-23T12:13:40;3.60;;;1.47;;
13969;SDS011;7057;49.984;8.404;2022-11-23T12:16:14;2.88;;;1.65;;
13969;SDS011;7057;49.984;8.404;2022-11-23T12:18:53;2.88;;;1.70;;
13969;SDS011;7057;49.984;8.404;2022-11-23T12:24:36;3.65;;;1.50;;
13969;SDS011;7057;49.984;8.404;2022-11-23T12:27:20;4.80;;;2.00;;
13969;SDS011;7057;49.984;8.404;2022-11-23T12:35:53;4.53;;;1.65;;
13969;SDS011;7057;49.984;8.404;2022-11-23T12:38:33;4.47;;;1.83;;
13969;SDS011;7057;49.984;8.404;2022-11-23T12:41:21;4.65;;;1.73;;
13969;SDS011;7057;49.984;8.404;2022-11-23T12:43:55;3.10;;;1.75;;
13969;SDS011;7057;49.984;8.404;2022-11-23T12:46:39;3.78;;;1.60;;
13969;SDS011;7057;49.984;8.404;2022-11-23T12:49:16;5.20;;;2.00;;
13969;SDS011;7057;49.984;8.404;2022-11-23T12:51:55;4.60;;;1.85;;
13969;SDS011;7057;49.984;8.404;2022-11-23T12:54:33;2.80;;;1.60;;
13969;SDS011;7057;49.984;8.404;2022-11-23T12:57:11;4.20;;;1.60;;
13969;SDS011;7057;49.984;8.404;2022-11-23T12:59:46;3.58;;;1.88;;
13969;SDS011;7057;49.984;8.404;2022-11-23T13:05:31;5.28;;;1.80;;
13969;SDS011;7057;49.984;8.404;2022-11-23T13:08:17;3.63;;;1.77;;
13969;SDS011;7057;49.984;8.404;2022-11-23T13:11:13;2.85;;;1.50;;
13969;SDS011;7057;49.984;8.404;2022-11-23T13:13:49;4.47;;;1.70;;
13969;SDS011;7057;49.984;8.404;2022-11-23T13:16:37;5.68;;;1.95;;
13969;SDS011;7057;49.984;8.404;2022-11-23T13:19:14;4.22;;;1.50;;
13969;SDS011;7057;49.984;8.404;2022-11-23T13:21:53;5.07;;;1.42;;
13969;SDS011;7057;49.984;8.404;2022-11-23T13:24:24;4.78;;;1.80;;
13969;SDS011;7057;49.984;8.404;2022-11-23T13:27:28;3.22;;;1.45;;
13969;SDS011;7057;49.984;8.404;2022-11-23T13:29:56;4.22;;;1.80;;
13969;SDS011;7057;49.984;8.404;2022-11-23T13:32:44;4.07;;;1.65;;
13969;SDS011;7057;49.984;8.404;2022-11-23T13:38:17;4.15;;;2.10;;
13969;SDS011;7057;49.984;8.404;2022-11-23T13:40:52;5.43;;;1.77;;
13969;SDS011;7057;49.984;8.404;2022-11-23T13:43:21;5.72;;;1.80;;
13969;SDS011;7057;49.984;8.404;2022-11-23T13:46:10;3.92;;;1.60;;
13969;SDS011;7057;49.984;8.404;2022-11-23T13:48:48;5.15;;;1.50;;
13969;SDS011;7057;49.984;8.404;2022-11-23T13:51:26;5.65;;;1.90;;
13969;SDS011;7057;49.984;8.404;2022-11-23T13:53:56;4.63;;;1.77;;
13969;SDS011;7057;49.984;8.404;2022-11-23T13:56:30;4.43;;;1.67;;
13969;SDS011;7057;49.984;8.404;2022-11-23T13:59:19;4.43;;;1.52;;
13969;SDS011;7057;49.984;8.404;2022-11-23T14:01:57;6.68;;;1.60;;
13969;SDS011;7057;49.984;8.404;2022-11-23T14:04:27;5.17;;;1.50;;
13969;SDS011;7057;49.984;8.404;2022-11-23T14:06:56;5.93;;;2.00;;
13969;SDS011;7057;49.984;8.404;2022-11-23T14:09:29;5.80;;;1.40;;
13969;SDS011;7057;49.984;8.404;2022-11-23T14:12:03;4.68;;;1.63;;
13969;SDS011;7057;49.984;8.404;2022-11-23T14:20:48;4.88;;;1.63;;
13969;SDS011;7057;49.984;8.404;2022-11-23T14:23:56;5.15;;;1.77;;
13969;SDS011;7057;49.984;8.404;2022-11-23T14:26:52;5.70;;;2.00;;
13969;SDS011;7057;49.984;8.404;2022-11-23T14:29:29;5.20;;;2.00;;
13969;SDS011;7057;49.984;8.404;2022-11-23T14:32:18;4.70;;;1.90;;
13969;SDS011;7057;49.984;8.404;2022-11-23T14:35:03;6.10;;;1.77;;
13969;SDS011;7057;49.984;8.404;2022-11-23T14:37:46;3.03;;;1.92;;
13969;SDS011;7057;49.984;8.404;2022-11-23T14:40:26;4.68;;;1.80;;
13969;SDS011;7057;49.984;8.404;2022-11-23T14:42:56;4.15;;;1.50;;
13969;SDS011;7057;49.984;8.404;2022-11-23T14:45:26;6.28;;;1.70;;
13969;SDS011;7057;49.984;8.404;2022-11-23T14:47:55;5.77;;;2.53;;
13969;SDS011;7057;49.984;8.404;2022-11-23T14:50:23;5.70;;;2.45;;
13969;SDS011;7057;49.984;8.404;2022-11-23T14:52:53;6.67;;;2.57;;
13969;SDS011;7057;49.984;8.404;2022-11-23T14:55:23;7.32;;;2.63;;
13969;SDS011;7057;49.984;8.404;2022-11-23T14:57:53;4.93;;;2.50;;
13969;SDS011;7057;49.984;8.404;2022-11-23T15:00:25;7.40;;;2.40;;
13969;SDS011;7057;49.984;8.404;2022-11-23T15:02:55;6.60;;;2.55;;
13969;SDS011;7057;49.984;8.404;2022-11-23T15:05:26;7.53;;;2.70;;
13969;SDS011;7057;49.984;8.404;2022-11-23T15:07:58;5.43;;;2.50;;
13969;SDS011;7057;49.984;8.404;2022-11-23T15:10:38;6.47;;;2.30;;
13969;SDS011;7057;49.984;8.404;2022-11-23T15:13:18;4.55;;;2.20;;
13969;SDS011;7057;49.984;8.404;2022-11-23T15:15:48;5.15;;;2.80;;
13969;SDS011;7057;49.984;8.404;2022-11-23T15:18:28;6.80;;;3.60;;
13969;SDS011;7057;49.984;8.404;2022-11-23T15:20:57;5.80;;;3.25;;
13969;SDS011;7057;49.984;8.404;2022-11-23T15:23:31;4.75;;;2.50;;
13969;SDS011;7057;49.984;8.404;2022-11-23T15:26:01;5.45;;;2.60;;
13969;SDS011;7057;49.984;8.404;2022-11-23T15:28:32;4.57;;;2.30;;
13969;SDS011;7057;49.984;8.404;2022-11-23T15:31:15;3.75;;;2.22;;
13969;SDS011;7057;49.984;8.404;2022-11-23T15:33:52;5.75;;;3.10;;
13969;SDS011;7057;49.984;8.404;2022-11-23T15:36:23;7.13;;;3.40;;
13969;SDS011;7057;49.984;8.404;2022-11-23T15:38:54;5.20;;;2.90;;
13969;SDS011;7057;49.984;8.404;2022-11-23T15:41:22;6.10;;;2.97;;